sensor_id;sensor_type;location;lat;lon;timestamp;temperature;humidity
44627;DHT22;30333;52.192;8.834;2023-03-01T00:03:06;-1.30;99.90
44627;DHT22;30333;52.192;8.834;2023-03-01T00:06:19;-2.10;99.90
44627;DHT22;30333;52.192;8.834;2023-03-01T08:30:28;-0.70;99.90
44627;DHT22;30333;52.192;8.834;2023-03-01T08:35:39;-0.40;99.90
44627;DHT22;30333;52.192;8.834;2023-03-01T08:38:10;-0.50;99.90
44627;DHT22;30333;52.192;8.834;2023-03-01T08:40:39;-0.40;99.90
44627;DHT22;30333;52.192;8.834;2023-03-01T08:43:04;-0.30;99.90
44627;DHT22;30333;52.192;8.834;2023-03-01T08:45:30;-0.50;99.90
44627;DHT22;30333;52.192;8.834;2023-03-01T08:47:55;-0.40;99.90
44627;DHT22;30333;52.192;8.834;2023-03-01T08:50:21;-0.30;99.90
44627;DHT22;30333;52.192;8.834;2023-03-01T08:52:46;-0.10;99.90
44627;DHT22;30333;52.192;8.834;2023-03-01T08:55:11;0.00;99.90
44627;DHT22;30333;52.192;8.834;2023-03-01T08:57:37;-0.20;99.90
44627;DHT22;30333;52.192;8.834;2023-03-01T09:00:02;-0.10;99.90
44627;DHT22;30333;52.192;8.834;2023-03-01T09:02:28;-0.10;99.90
44627;DHT22;30333;52.192;8.834;2023-03-01T09:04:54;-0.10;99.90
44627;DHT22;30333;52.192;8.834;2023-03-01T09:07:19;1.80;99.90
44627;DHT22;30333;52.192;8.834;2023-03-01T09:09:44;0.00;99.90
44627;DHT22;30333;52.192;8.834;2023-03-01T09:12:10;0.20;99.90
44627;DHT22;30333;52.192;8.834;2023-03-01T09:14:36;-0.10;99.90
44627;DHT22;30333;52.192;8.834;2023-03-01T09:17:03;1.70;99.90
44627;DHT22;30333;52.192;8.834;2023-03-01T09:19:30;1.30;99.90
44627;DHT22;30333;52.192;8.834;2023-03-01T09:21:55;-0.50;99.90
44627;DHT22;30333;52.192;8.834;2023-03-01T09:24:22;-0.20;99.90
44627;DHT22;30333;52.192;8.834;2023-03-01T09:26:48;0.40;99.90
44627;DHT22;30333;52.192;8.834;2023-03-01T09:29:15;0.20;99.90
44627;DHT22;30333;52.192;8.834;2023-03-01T09:31:40;0.60;99.90
44627;DHT22;30333;52.192;8.834;2023-03-01T09:34:06;0.40;99.90
44627;DHT22;30333;52.192;8.834;2023-03-01T09:36:32;1.50;99.90
44627;DHT22;30333;52.192;8.834;2023-03-01T09:38:58;2.40;99.90
44627;DHT22;30333;52.192;8.834;2023-03-01T09:43:51;1.30;99.90
44627;DHT22;30333;52.192;8.834;2023-03-01T09:46:21;1.10;99.90
44627;DHT22;30333;52.192;8.834;2023-03-01T09:48:52;1.10;99.90
44627;DHT22;30333;52.192;8.834;2023-03-01T09:51:30;1.40;99.90
44627;DHT22;30333;52.192;8.834;2023-03-01T09:53:56;1.80;99.90
44627;DHT22;30333;52.192;8.834;2023-03-01T10:07:05;2.00;99.90
44627;DHT22;30333;52.192;8.834;2023-03-01T10:09:36;2.20;99.90
44627;DHT22;30333;52.192;8.834;2023-03-01T10:12:02;2.30;99.90
44627;DHT22;30333;52.192;8.834;2023-03-01T10:14:34;2.50;99.90
44627;DHT22;30333;52.192;8.834;2023-03-01T10:17:04;2.50;99.90
44627;DHT22;30333;52.192;8.834;2023-03-01T10:19:36;2.60;99.90
44627;DHT22;30333;52.192;8.834;2023-03-01T10:22:13;2.60;99.90
44627;DHT22;30333;52.192;8.834;2023-03-01T10:24:40;2.80;99.90
44627;DHT22;30333;52.192;8.834;2023-03-01T10:27:07;2.80;99.90
44627;DHT22;30333;52.192;8.834;2023-03-01T10:29:37;2.80;99.90
44627;DHT22;30333;52.192;8.834;2023-03-01T10:32:03;2.80;99.90
44627;DHT22;30333;52.192;8.834;2023-03-01T10:34:33;3.00;99.90
44627;DHT22;30333;52.192;8.834;2023-03-01T10:37:16;3.10;99.90
44627;DHT22;30333;52.192;8.834;2023-03-01T10:39:57;3.10;99.90
44627;DHT22;30333;52.192;8.834;2023-03-01T10:42:32;3.10;99.90
44627;DHT22;30333;52.192;8.834;2023-03-01T10:45:11;3.20;99.90
44627;DHT22;30333;52.192;8.834;2023-03-01T10:47:40;3.10;99.90
44627;DHT22;30333;52.192;8.834;2023-03-01T10:50:05;3.20;99.90
44627;DHT22;30333;52.192;8.834;2023-03-01T10:54:58;3.20;99.90
44627;DHT22;30333;52.192;8.834;2023-03-01T10:57:27;3.20;99.90
44627;DHT22;30333;52.192;8.834;2023-03-01T11:00:00;3.30;99.90
44627;DHT22;30333;52.192;8.834;2023-03-01T11:02:29;3.50;99.90
44627;DHT22;30333;52.192;8.834;2023-03-01T11:05:16;3.50;99.90
44627;DHT22;30333;52.192;8.834;2023-03-01T11:07:46;3.50;99.90
44627;DHT22;30333;52.192;8.834;2023-03-01T11:10:12;3.70;99.90
44627;DHT22;30333;52.192;8.834;2023-03-01T11:12:37;3.70;99.90
44627;DHT22;30333;52.192;8.834;2023-03-01T11:15:03;3.70;99.90
44627;DHT22;30333;52.192;8.834;2023-03-01T11:17:29;3.80;99.90
44627;DHT22;30333;52.192;8.834;2023-03-01T11:20:00;3.90;99.90
44627;DHT22;30333;52.192;8.834;2023-03-01T11:22:26;3.90;99.90
44627;DHT22;30333;52.192;8.834;2023-03-01T11:24:53;3.90;99.90
44627;DHT22;30333;52.192;8.834;2023-03-01T11:29:46;3.90;99.90
44627;DHT22;30333;52.192;8.834;2023-03-01T11:32:16;3.90;99.90
44627;DHT22;30333;52.192;8.834;2023-03-01T11:34:56;4.00;99.90
44627;DHT22;30333;52.192;8.834;2023-03-01T11:37:26;4.00;99.90
44627;DHT22;30333;52.192;8.834;2023-03-01T11:39:55;4.10;99.40
44627;DHT22;30333;52.192;8.834;2023-03-01T11:42:34;4.30;98.70
44627;DHT22;30333;52.192;8.834;2023-03-01T11:45:06;4.40;97.70
44627;DHT22;30333;52.192;8.834;2023-03-01T11:52:50;4.40;98.50
44627;DHT22;30333;52.192;8.834;2023-03-01T11:58:01;4.70;96.10
44627;DHT22;30333;52.192;8.834;2023-03-01T12:03:20;4.80;96.70
44627;DHT22;30333;52.192;8.834;2023-03-01T12:16:01;5.10;96.70
44627;DHT22;30333;52.192;8.834;2023-03-01T12:18:43;5.20;94.80
44627;DHT22;30333;52.192;8.834;2023-03-01T12:26:32;5.30;94.00
44627;DHT22;30333;52.192;8.834;2023-03-01T12:29:07;5.20;93.50
44627;DHT22;30333;52.192;8.834;2023-03-01T12:31:38;5.30;93.20
44627;DHT22;30333;52.192;8.834;2023-03-01T12:34:14;5.30;92.70
44627;DHT22;30333;52.192;8.834;2023-03-01T12:37:01;5.20;93.80
44627;DHT22;30333;52.192;8.834;2023-03-01T12:39:45;5.30;93.70
44627;DHT22;30333;52.192;8.834;2023-03-01T12:42:25;5.30;93.10
44627;DHT22;30333;52.192;8.834;2023-03-01T12:45:05;5.30;93.90
44627;DHT22;30333;52.192;8.834;2023-03-01T12:50:19;5.50;91.80
44627;DHT22;30333;52.192;8.834;2023-03-01T12:55:44;5.50;93.50
44627;DHT22;30333;52.192;8.834;2023-03-01T13:00:44;5.70;93.30
44627;DHT22;30333;52.192;8.834;2023-03-01T13:03:33;5.70;92.00
44627;DHT22;30333;52.192;8.834;2023-03-01T13:11:01;7.20;91.90
44627;DHT22;30333;52.192;8.834;2023-03-01T13:13:30;8.60;92.80
44627;DHT22;30333;52.192;8.834;2023-03-01T13:15:56;5.70;92.40
44627;DHT22;30333;52.192;8.834;2023-03-01T13:20:49;6.00;91.50
44627;DHT22;30333;52.192;8.834;2023-03-01T13:28:38;5.80;91.50
44627;DHT22;30333;52.192;8.834;2023-03-01T13:31:06;5.90;91.60
44627;DHT22;30333;52.192;8.834;2023-03-01T13:35:59;5.90;90.90
44627;DHT22;30333;52.192;8.834;2023-03-01T13:38:44;5.90;90.50
44627;DHT22;30333;52.192;8.834;2023-03-01T13:41:12;6.00;90.70
44627;DHT22;30333;52.192;8.834;2023-03-01T13:43:38;6.00;90.80
44627;DHT22;30333;52.192;8.834;2023-03-01T13:46:19;6.00;90.80
44627;DHT22;30333;52.192;8.834;2023-03-01T13:48:52;6.00;90.70
44627;DHT22;30333;52.192;8.834;2023-03-01T13:51:21;6.00;91.00
44627;DHT22;30333;52.192;8.834;2023-03-01T13:53:48;6.80;91.10
44627;DHT22;30333;52.192;8.834;2023-03-01T13:56:17;5.80;92.30
44627;DHT22;30333;52.192;8.834;2023-03-01T13:58:49;5.90;91.10
44627;DHT22;30333;52.192;8.834;2023-03-01T14:01:20;6.20;90.00
44627;DHT22;30333;52.192;8.834;2023-03-01T14:03:46;6.20;89.30
44627;DHT22;30333;52.192;8.834;2023-03-01T14:06:15;6.10;88.80
44627;DHT22;30333;52.192;8.834;2023-03-01T14:08:43;6.20;89.30
44627;DHT22;30333;52.192;8.834;2023-03-01T14:19:23;6.40;86.50
44627;DHT22;30333;52.192;8.834;2023-03-01T14:24:35;6.30;89.30
44627;DHT22;30333;52.192;8.834;2023-03-01T14:27:04;6.30;87.90
44627;DHT22;30333;52.192;8.834;2023-03-01T14:29:35;6.40;88.00
44627;DHT22;30333;52.192;8.834;2023-03-01T14:34:36;6.40;84.90
44627;DHT22;30333;52.192;8.834;2023-03-01T14:39:52;6.40;86.90
44627;DHT22;30333;52.192;8.834;2023-03-01T14:42:18;6.20;86.00
44627;DHT22;30333;52.192;8.834;2023-03-01T14:44:45;6.40;86.00
44627;DHT22;30333;52.192;8.834;2023-03-01T14:47:12;6.40;86.40
44627;DHT22;30333;52.192;8.834;2023-03-01T14:49:39;7.30;86.20
44627;DHT22;30333;52.192;8.834;2023-03-01T14:52:07;6.20;85.70
44627;DHT22;30333;52.192;8.834;2023-03-01T14:54:39;6.40;85.50
44627;DHT22;30333;52.192;8.834;2023-03-01T14:57:05;5.50;86.50
44627;DHT22;30333;52.192;8.834;2023-03-01T14:59:32;6.70;86.50
44627;DHT22;30333;52.192;8.834;2023-03-01T15:01:58;6.50;85.00
44627;DHT22;30333;52.192;8.834;2023-03-01T15:04:24;6.30;86.10
44627;DHT22;30333;52.192;8.834;2023-03-01T15:06:52;6.30;85.80
44627;DHT22;30333;52.192;8.834;2023-03-01T15:09:17;6.40;86.10
44627;DHT22;30333;52.192;8.834;2023-03-01T15:11:44;6.50;84.20
44627;DHT22;30333;52.192;8.834;2023-03-01T15:16:54;6.50;85.10
44627;DHT22;30333;52.192;8.834;2023-03-01T15:19:19;6.00;86.30
44627;DHT22;30333;52.192;8.834;2023-03-01T15:21:47;6.40;86.00
44627;DHT22;30333;52.192;8.834;2023-03-01T15:26:47;9.10;87.60
44627;DHT22;30333;52.192;8.834;2023-03-01T15:29:20;6.60;84.70
44627;DHT22;30333;52.192;8.834;2023-03-01T15:34:24;6.60;84.60
44627;DHT22;30333;52.192;8.834;2023-03-01T15:36:55;6.60;85.40
44627;DHT22;30333;52.192;8.834;2023-03-01T15:39:42;6.60;84.80
44627;DHT22;30333;52.192;8.834;2023-03-01T15:47:33;6.50;84.60
44627;DHT22;30333;52.192;8.834;2023-03-01T15:52:33;6.40;85.30
44627;DHT22;30333;52.192;8.834;2023-03-01T15:55:04;6.40;84.80
44627;DHT22;30333;52.192;8.834;2023-03-01T16:12:15;6.20;85.60
44627;DHT22;30333;52.192;8.834;2023-03-01T16:46:26;5.00;92.20
44627;DHT22;30333;52.192;8.834;2023-03-01T16:51:19;5.00;91.80
44627;DHT22;30333;52.192;8.834;2023-03-01T16:56:12;5.00;91.50
44627;DHT22;30333;52.192;8.834;2023-03-01T17:01:09;4.70;93.00
44627;DHT22;30333;52.192;8.834;2023-03-01T17:03:36;4.60;93.70
44627;DHT22;30333;52.192;8.834;2023-03-01T17:06:08;4.50;94.10
44627;DHT22;30333;52.192;8.834;2023-03-01T17:11:05;4.30;95.20
44627;DHT22;30333;52.192;8.834;2023-03-01T17:25:43;4.00;95.80
44627;DHT22;30333;52.192;8.834;2023-03-01T18:36:27;2.60;99.90
44627;DHT22;30333;52.192;8.834;2023-03-01T18:51:17;2.50;99.90
44627;DHT22;30333;52.192;8.834;2023-03-01T19:05:57;2.30;99.90
44627;DHT22;30333;52.192;8.834;2023-03-01T19:08:23;2.30;99.90
44627;DHT22;30333;52.192;8.834;2023-03-01T19:11:00;2.40;99.90
44627;DHT22;30333;52.192;8.834;2023-03-01T19:52:21;2.10;99.90
44627;DHT22;30333;52.192;8.834;2023-03-01T19:54:47;1.90;99.90
44627;DHT22;30333;52.192;8.834;2023-03-01T19:57:12;2.00;99.90
44627;DHT22;30333;52.192;8.834;2023-03-01T19:59:38;2.70;99.90
44627;DHT22;30333;52.192;8.834;2023-03-01T20:04:29;2.00;99.90
44627;DHT22;30333;52.192;8.834;2023-03-01T20:16:38;2.00;99.90
44627;DHT22;30333;52.192;8.834;2023-03-01T20:19:04;2.00;99.90
44627;DHT22;30333;52.192;8.834;2023-03-01T20:28:52;1.80;99.90
44627;DHT22;30333;52.192;8.834;2023-03-01T20:31:19;1.70;99.90
44627;DHT22;30333;52.192;8.834;2023-03-01T20:33:45;1.60;99.90
44627;DHT22;30333;52.192;8.834;2023-03-01T20:36:11;4.90;99.90
44627;DHT22;30333;52.192;8.834;2023-03-01T20:41:05;1.60;99.90
44627;DHT22;30333;52.192;8.834;2023-03-01T20:43:32;1.60;99.90
44627;DHT22;30333;52.192;8.834;2023-03-01T21:32:15;1.20;99.90
44627;DHT22;30333;52.192;8.834;2023-03-01T21:37:08;1.30;99.90
44627;DHT22;30333;52.192;8.834;2023-03-01T21:42:02;1.10;99.90
44627;DHT22;30333;52.192;8.834;2023-03-01T21:44:29;1.10;99.90
44627;DHT22;30333;52.192;8.834;2023-03-01T21:46:55;1.00;99.90
44627;DHT22;30333;52.192;8.834;2023-03-01T21:54:15;1.00;99.90
44627;DHT22;30333;52.192;8.834;2023-03-01T21:56:43;1.00;99.90
44627;DHT22;30333;52.192;8.834;2023-03-01T21:59:16;0.60;99.90
44627;DHT22;30333;52.192;8.834;2023-03-01T22:06:39;0.90;99.90
44627;DHT22;30333;52.192;8.834;2023-03-01T22:09:10;0.80;99.90
44627;DHT22;30333;52.192;8.834;2023-03-01T22:11:38;0.80;99.90
44627;DHT22;30333;52.192;8.834;2023-03-01T22:16:32;0.80;99.90
44627;DHT22;30333;52.192;8.834;2023-03-01T22:21:24;0.70;99.90
44627;DHT22;30333;52.192;8.834;2023-03-01T22:23:51;0.70;99.90
44627;DHT22;30333;52.192;8.834;2023-03-01T22:26:26;0.60;99.90
44627;DHT22;30333;52.192;8.834;2023-03-01T22:28:53;0.70;99.90
44627;DHT22;30333;52.192;8.834;2023-03-01T22:31:20;0.70;99.90
44627;DHT22;30333;52.192;8.834;2023-03-01T22:33:45;0.70;99.90
44627;DHT22;30333;52.192;8.834;2023-03-01T22:36:11;0.70;99.90
44627;DHT22;30333;52.192;8.834;2023-03-01T22:38:37;0.60;99.90
44627;DHT22;30333;52.192;8.834;2023-03-01T22:41:04;0.60;99.90
44627;DHT22;30333;52.192;8.834;2023-03-01T22:43:30;0.60;99.90
44627;DHT22;30333;52.192;8.834;2023-03-01T22:45:57;0.70;99.90
44627;DHT22;30333;52.192;8.834;2023-03-01T22:48:23;0.70;99.90
44627;DHT22;30333;52.192;8.834;2023-03-01T22:50:49;0.70;99.90
44627;DHT22;30333;52.192;8.834;2023-03-01T22:53:15;0.60;99.90
44627;DHT22;30333;52.192;8.834;2023-03-01T22:55:41;0.60;99.90
44627;DHT22;30333;52.192;8.834;2023-03-01T22:58:07;0.60;99.90
44627;DHT22;30333;52.192;8.834;2023-03-01T23:05:24;0.50;99.90
44627;DHT22;30333;52.192;8.834;2023-03-01T23:07:50;0.50;99.90
44627;DHT22;30333;52.192;8.834;2023-03-01T23:12:42;0.50;99.90
44627;DHT22;30333;52.192;8.834;2023-03-01T23:15:08;0.40;99.90
44627;DHT22;30333;52.192;8.834;2023-03-01T23:17:33;0.40;99.90
44627;DHT22;30333;52.192;8.834;2023-03-01T23:19:59;0.50;99.90
44627;DHT22;30333;52.192;8.834;2023-03-01T23:22:25;0.50;99.90
44627;DHT22;30333;52.192;8.834;2023-03-01T23:24:50;0.50;99.90
44627;DHT22;30333;52.192;8.834;2023-03-01T23:27:16;0.40;99.90
44627;DHT22;30333;52.192;8.834;2023-03-01T23:29:42;0.40;99.90
44627;DHT22;30333;52.192;8.834;2023-03-01T23:32:09;1.20;99.90
44627;DHT22;30333;52.192;8.834;2023-03-01T23:34:34;0.30;99.90
44627;DHT22;30333;52.192;8.834;2023-03-01T23:37:01;0.40;99.90
44627;DHT22;30333;52.192;8.834;2023-03-01T23:44:21;0.20;99.90
44627;DHT22;30333;52.192;8.834;2023-03-01T23:46:48;-0.10;99.90
44627;DHT22;30333;52.192;8.834;2023-03-01T23:49:16;0.20;99.90
44627;DHT22;30333;52.192;8.834;2023-03-01T23:51:44;0.30;99.90
44627;DHT22;30333;52.192;8.834;2023-03-01T23:54:10;0.20;99.90
44627;DHT22;30333;52.192;8.834;2023-03-01T23:56:38;0.20;99.90
44627;DHT22;30333;52.192;8.834;2023-03-01T23:59:16;0.10;99.90
